Westerdam — PINX — position and weather

sailwx.info

Track history (hours):
 
Tides and Currents Weather Stations Pressure Air Temp Water Temp Dewpoint Dewpoint Depression Visibility Wind Speed Wind Dir Waves Ship Positions

Westerdam

Operator: Holland America Line

Last reported at 2019-Feb-15 14:00 UTC. Time now 2019-Feb-16 17:46 UTC.
Position N 31°06' E 129°42'.

Type: Passenger vessel. MMSI: 244128000.

Wind from 340 at 19 knots

Barometer 1019.4 mb
Air temperature 11.0 ° C
Visibility: greater than 5.4 NM
Dewpoint 0.7 ° C
Water temperature 15.0 ° C

Date/timePositionNaut miles runAvg speedWind from/ knotsBaromVisibWave heightAir tempDewpointWater temp
2019-Feb-15 14:00N 31°06' E 129°42'1010.3 340 / 191019.4 5.4 11.0 0.715.0
2019-Feb-15 13:00N 31°06' E 129°54'1515.4 010 / 191019.4 5.4 11.0 0.715.0
2019-Feb-15 12:00N 31°06' E 130°12'1515.4 010 / 191019.4 5.4 11.0 0.715.0
2019-Feb-15 11:00N 31°06' E 130°30'28 1.5 030 / 191019.4 5.4 11.0 0.715.0
2019-Feb-14 16:00N 31°18' E 130°00'157 6.8
2019-Feb-13 17:00N 33°48' E 129°06'37 7.5 010 / 261028.1 5.4 8.0-2.115.0
2019-Feb-13 12:00N 34°24' E 128°54'8 7.8 350 / 151029.7 5.4 8.2-3.716.5
2019-Feb-13 11:00N 34°30' E 129°00'3217.0 350 / 151029.3 5.4 8.2-3.716.5
2019-Feb-13 09:06N 35°01' E 129°08'113.0
2019-Feb-13 09:00N 35°03' E 129°08'4 7.9
2019-Feb-13 08:30N 35°06' E 129°05'2 3.9
2019-Feb-13 08:00N 35°07' E 129°03'0 0.0
2019-Feb-13 07:30N 35°07' E 129°03'0 0.0
2019-Feb-13 07:00N 35°07' E 129°03'0 0.0
2019-Feb-13 06:30N 35°07' E 129°03'0 0.0
2019-Feb-13 06:00N 35°07' E 129°03'0 0.0
2019-Feb-13 05:30N 35°07' E 129°03'0 0.0
2019-Feb-13 05:00N 35°07' E 129°03'0 0.0
2019-Feb-13 04:30N 35°07' E 129°03'0 0.0
2019-Feb-13 04:00N 35°07' E 129°03'0 0.0
2019-Feb-13 03:30N 35°07' E 129°03'0 0.0
2019-Feb-13 02:57N 35°07' E 129°03'0 0.0
2019-Feb-13 02:30N 35°07' E 129°03'0 0.0
2019-Feb-13 02:00N 35°07' E 129°03'0 0.0
2019-Feb-13 01:30N 35°07' E 129°03'0 0.0
2019-Feb-13 01:00N 35°07' E 129°03'0 0.0
2019-Feb-13 00:30N 35°07' E 129°03'0 0.0
2019-Feb-13 00:00N 35°07' E 129°03'0 0.0
2019-Feb-12 23:30N 35°07' E 129°03'0 0.0
2019-Feb-12 23:00N 35°07' E 129°03'0 0.2
2019-Feb-12 22:31N 35°07' E 129°03'2 4.2
2019-Feb-12 22:01N 35°06' E 129°05'7 9.5
2019-Feb-12 21:14N 35°00' E 129°11'6118.9
2019-Feb-12 18:00N 34°06' E 128°36'1918.7 350 / 121029.3 5.4 8.2-3.716.5
2019-Feb-12 17:00N 33°48' E 128°30'44419.3 340 / 141029.7 5.4 8.8-4.116.5
2019-Feb-11 18:00N 26°54' E 125°24'2626.3 010 / 201027.9 5.4 16.311.221.1
2019-Feb-11 17:00N 26°30' E 125°12'2121.0 020 / 231027.9 5.4 17.213.521.1
2019-Feb-11 16:00N 26°12' E 125°00'100 3.6 030 / 221027.9 5.4 17.213.521.1
2019-Feb-10 12:00N 25°48' E 126°48'13 0.7 120 / 51025.0 5.4 20.314.621.1
2019-Feb-09 18:00N 26°00' E 126°54'2211.2 350 / 271022.2 5.4 17.213.316.2
2019-Feb-09 16:00N 25°54' E 126°30'4511.2 360 / 301022.2 5.4 17.513.616.2
2019-Feb-09 12:00N 25°42' E 125°42'16710.4 010 / 371021.2 5.4 15.915.116.2
2019-Feb-08 19:58N 25°21' E 122°38'511.2
2019-Feb-08 19:30N 25°20' E 122°32'712.1
2019-Feb-08 18:56N 25°19' E 122°25'610.9
2019-Feb-08 18:23N 25°18' E 122°18'511.1
2019-Feb-08 17:57N 25°18' E 122°13'511.0
2019-Feb-08 17:30N 25°17' E 122°07'816.4
2019-Feb-08 17:00N 25°12' E 122°00'435.9 280 / 121019.5 5.4 15.915.116.2
2019-Feb-08 16:53N 25°16' E 122°00'511.2
2019-Feb-08 16:27N 25°15' E 121°55'611.2
2019-Feb-08 15:56N 25°13' E 121°49'510.6
2019-Feb-08 15:30N 25°10' E 121°45'2 3.5
2019-Feb-08 15:00N 25°08' E 121°45'0 0.0
2019-Feb-08 14:25N 25°08' E 121°45'0 0.0
2019-Feb-08 13:55N 25°08' E 121°45'0 0.0
2019-Feb-08 13:25N 25°08' E 121°45'0 0.0
2019-Feb-08 12:55N 25°08' E 121°45'0 0.0
2019-Feb-08 12:28N 25°08' E 121°45'0 0.0
2019-Feb-08 11:58N 25°08' E 121°45'0 0.0
2019-Feb-08 11:28N 25°08' E 121°45'0 0.0
2019-Feb-08 10:55N 25°08' E 121°45'0 0.0
2019-Feb-08 10:25N 25°08' E 121°45'0 0.0
2019-Feb-08 09:55N 25°08' E 121°45'0 0.0
2019-Feb-08 09:25N 25°08' E 121°45'0 0.0
2019-Feb-08 08:55N 25°08' E 121°45'0 0.0
2019-Feb-08 08:25N 25°08' E 121°45'0 0.0
2019-Feb-08 07:55N 25°08' E 121°45'0 0.0
2019-Feb-08 07:25N 25°08' E 121°45'0 0.0
2019-Feb-08 06:55N 25°08' E 121°45'0 0.0
2019-Feb-08 06:19N 25°08' E 121°45'0 0.0
2019-Feb-08 05:55N 25°08' E 121°45'0 0.0
2019-Feb-08 05:25N 25°08' E 121°45'0 0.0
2019-Feb-08 04:55N 25°08' E 121°45'0 0.0
2019-Feb-08 04:25N 25°08' E 121°45'0 0.0
2019-Feb-08 03:55N 25°08' E 121°45'0 0.0
2019-Feb-08 03:28N 25°08' E 121°45'0 0.0
2019-Feb-08 02:58N 25°08' E 121°45'0 0.0
2019-Feb-08 02:28N 25°08' E 121°45'0 0.0
2019-Feb-08 01:58N 25°08' E 121°45'0 0.0
2019-Feb-08 01:28N 25°08' E 121°45'0 0.0
2019-Feb-08 00:55N 25°08' E 121°45'0 0.0
2019-Feb-08 00:25N 25°08' E 121°45'0 0.0
2019-Feb-07 23:55N 25°08' E 121°45'0 0.3
2019-Feb-07 23:25N 25°08' E 121°45'2 3.7
2019-Feb-07 22:56N 25°10' E 121°45'1 1.8
2019-Feb-07 22:30N 25°11' E 121°45'712.8
2019-Feb-07 21:57N 25°18' E 121°42'817.0
2019-Feb-07 21:30N 25°24' E 121°37'814.8
2019-Feb-07 20:56N 25°24' E 121°28'817.5
2019-Feb-07 20:29N 25°22' E 121°20'1817.6
2019-Feb-07 19:29N 25°17' E 121°01'817.0
2019-Feb-07 19:00N 25°12' E 120°54'1616.2 020 / 33
2019-Feb-07 18:00N 25°00' E 120°42'2424.3
2019-Feb-07 17:00N 24°42' E 120°24'3417.1 030 / 35
2019-Feb-07 15:00N 24°12' E 120°06'1313.2 030 / 311017.3 5.4 20.216.826.0
2019-Feb-07 14:00N 24°00' E 120°00'1616.3 030 / 101016.6 5.4 23.720.226.0
2019-Feb-07 13:00N 23°48' E 119°48'2524.6 320 / 61016.3 5.4 23.720.226.0
2019-Feb-07 12:00N 23°24' E 119°54'1721.6 290 / 161015.8 5.4 23.720.226.0
2019-Feb-07 11:12N 23°07' E 119°54'519.3
2019-Feb-07 10:56N 23°02' E 119°55'818.8
2019-Feb-07 10:30N 22°55' E 119°59'918.3
2019-Feb-07 10:00N 22°47' E 120°04'917.7
2019-Feb-07 09:31N 22°40' E 120°10'612.3
2019-Feb-07 09:00N 22°37' E 120°16'1 2.4
2019-Feb-07 08:30N 22°37' E 120°17'0 0.0
2019-Feb-07 08:00N 22°37' E 120°17'0 0.0
2019-Feb-07 07:30N 22°37' E 120°17'0 0.0
2019-Feb-07 07:00N 22°37' E 120°17'0 0.0
2019-Feb-07 06:30N 22°37' E 120°17'0 0.0
2019-Feb-07 06:00N 22°37' E 120°17'0 0.0
2019-Feb-07 05:30N 22°37' E 120°17'0 0.0
2019-Feb-07 05:00N 22°37' E 120°17'0 0.0
2019-Feb-07 04:30N 22°37' E 120°17'0 0.0
2019-Feb-07 03:57N 22°37' E 120°17'0 0.0
2019-Feb-07 03:27N 22°37' E 120°17'0 0.0
2019-Feb-07 02:57N 22°37' E 120°17'0 0.0
2019-Feb-07 02:26N 22°37' E 120°17'0 0.0
2019-Feb-07 02:00N 22°37' E 120°17'0 0.0
2019-Feb-07 01:30N 22°37' E 120°17'0 0.0
2019-Feb-07 00:57N 22°37' E 120°17'0 0.0
2019-Feb-07 00:27N 22°37' E 120°17'0 0.0
2019-Feb-07 00:00N 22°37' E 120°17'0 0.0
2019-Feb-06 23:26N 22°37' E 120°17'0 0.0
2019-Feb-06 22:57N 22°37' E 120°17'0 0.0
2019-Feb-06 22:27N 22°37' E 120°17'0 0.8
2019-Feb-06 22:00N 22°37' E 120°17'3 6.3
2019-Feb-06 21:30N 22°34' E 120°19'2 3.5
2019-Feb-06 21:00N 22°33' E 120°17'5 9.6
2019-Feb-06 20:30N 22°31' E 120°12'713.1
2019-Feb-06 20:01N 22°28' E 120°06'713.3
2019-Feb-06 19:29N 22°22' E 120°02'713.6
2019-Feb-06 19:00N 22°15' E 120°01'34176.1
2019-Feb-06 19:00N 22°12' E 120°00'1313.2 060 / 91014.6 5.4 23.720.226.0
2019-Feb-06 18:00N 22°00' E 119°54'1212.0 140 / 51014.910.8 24.820.126.0
2019-Feb-06 17:00N 21°48' E 119°54'37817.2 160 / 51015.110.8 24.820.126.0
2019-Feb-05 19:00N 15°30' E 119°36'0 0.0 360 / 141014.3
2019-Feb-05 18:00N 15°30' E 119°36'5117.0 360 / 141014.3
2019-Feb-05 15:00N 14°42' E 119°54'6 6.0 090 / 141015.310.8 26.519.625.2
2019-Feb-05 14:00N 14°36' E 119°54'   090 / 141015.310.8 26.519.625.2
Track history (hours):
 
Tides and Currents Weather Stations Pressure Air Temp Water Temp Dewpoint Dewpoint Depression Visibility Wind Speed Wind Dir Waves Ship Positions

Westerdam

Operator: Holland America Line

Last reported at 2019-Feb-15 14:00 UTC. Time now 2019-Feb-16 17:46 UTC.
Position N 31°06' E 129°42'.

Type: Passenger vessel. MMSI: 244128000.

Wind from 340 at 19 knots

Barometer 1019.4 mb
Air temperature 11.0 ° C
Visibility: greater than 5.4 NM
Dewpoint 0.7 ° C
Water temperature 15.0 ° C

Date/timePositionNaut miles runAvg speedWind from/ knotsBaromVisibWave heightAir tempDewpointWater temp
2019-Feb-15 14:00N 31°06' E 129°42'1010.3 340 / 191019.4 5.4 11.0 0.715.0
2019-Feb-15 13:00N 31°06' E 129°54'1515.4 010 / 191019.4 5.4 11.0 0.715.0
2019-Feb-15 12:00N 31°06' E 130°12'1515.4 010 / 191019.4 5.4 11.0 0.715.0
2019-Feb-15 11:00N 31°06' E 130°30'28 1.5 030 / 191019.4 5.4 11.0 0.715.0
2019-Feb-14 16:00N 31°18' E 130°00'157 6.8
2019-Feb-13 17:00N 33°48' E 129°06'37 7.5 010 / 261028.1 5.4 8.0-2.115.0
2019-Feb-13 12:00N 34°24' E 128°54'8 7.8 350 / 151029.7 5.4 8.2-3.716.5
2019-Feb-13 11:00N 34°30' E 129°00'3217.0 350 / 151029.3 5.4 8.2-3.716.5
2019-Feb-13 09:06N 35°01' E 129°08'113.0
2019-Feb-13 09:00N 35°03' E 129°08'4 7.9
2019-Feb-13 08:30N 35°06' E 129°05'2 3.9
2019-Feb-13 08:00N 35°07' E 129°03'0 0.0
2019-Feb-13 07:30N 35°07' E 129°03'0 0.0
2019-Feb-13 07:00N 35°07' E 129°03'0 0.0
2019-Feb-13 06:30N 35°07' E 129°03'0 0.0
2019-Feb-13 06:00N 35°07' E 129°03'0 0.0
2019-Feb-13 05:30N 35°07' E 129°03'0 0.0
2019-Feb-13 05:00N 35°07' E 129°03'0 0.0
2019-Feb-13 04:30N 35°07' E 129°03'0 0.0
2019-Feb-13 04:00N 35°07' E 129°03'0 0.0
2019-Feb-13 03:30N 35°07' E 129°03'0 0.0
2019-Feb-13 02:57N 35°07' E 129°03'0 0.0
2019-Feb-13 02:30N 35°07' E 129°03'0 0.0
2019-Feb-13 02:00N 35°07' E 129°03'0 0.0
2019-Feb-13 01:30N 35°07' E 129°03'0 0.0
2019-Feb-13 01:00N 35°07' E 129°03'0 0.0
2019-Feb-13 00:30N 35°07' E 129°03'0 0.0
2019-Feb-13 00:00N 35°07' E 129°03'0 0.0
2019-Feb-12 23:30N 35°07' E 129°03'0 0.0
2019-Feb-12 23:00N 35°07' E 129°03'0 0.2
2019-Feb-12 22:31N 35°07' E 129°03'2 4.2
2019-Feb-12 22:01N 35°06' E 129°05'7 9.5
2019-Feb-12 21:14N 35°00' E 129°11'6118.9
2019-Feb-12 18:00N 34°06' E 128°36'1918.7 350 / 121029.3 5.4 8.2-3.716.5
2019-Feb-12 17:00N 33°48' E 128°30'44419.3 340 / 141029.7 5.4 8.8-4.116.5
2019-Feb-11 18:00N 26°54' E 125°24'2626.3 010 / 201027.9 5.4 16.311.221.1
2019-Feb-11 17:00N 26°30' E 125°12'2121.0 020 / 231027.9 5.4 17.213.521.1
2019-Feb-11 16:00N 26°12' E 125°00'100 3.6 030 / 221027.9 5.4 17.213.521.1
2019-Feb-10 12:00N 25°48' E 126°48'13 0.7 120 / 51025.0 5.4 20.314.621.1
2019-Feb-09 18:00N 26°00' E 126°54'2211.2 350 / 271022.2 5.4 17.213.316.2
2019-Feb-09 16:00N 25°54' E 126°30'4511.2 360 / 301022.2 5.4 17.513.616.2
2019-Feb-09 12:00N 25°42' E 125°42'16710.4 010 / 371021.2 5.4 15.915.116.2
2019-Feb-08 19:58N 25°21' E 122°38'511.2
2019-Feb-08 19:30N 25°20' E 122°32'712.1
2019-Feb-08 18:56N 25°19' E 122°25'610.9
2019-Feb-08 18:23N 25°18' E 122°18'511.1
2019-Feb-08 17:57N 25°18' E 122°13'511.0
2019-Feb-08 17:30N 25°17' E 122°07'816.4
2019-Feb-08 17:00N 25°12' E 122°00'435.9 280 / 121019.5 5.4 15.915.116.2
2019-Feb-08 16:53N 25°16' E 122°00'511.2
2019-Feb-08 16:27N 25°15' E 121°55'611.2
2019-Feb-08 15:56N 25°13' E 121°49'510.6
2019-Feb-08 15:30N 25°10' E 121°45'2 3.5
2019-Feb-08 15:00N 25°08' E 121°45'0 0.0
2019-Feb-08 14:25N 25°08' E 121°45'0 0.0
2019-Feb-08 13:55N 25°08' E 121°45'0 0.0
2019-Feb-08 13:25N 25°08' E 121°45'0 0.0
2019-Feb-08 12:55N 25°08' E 121°45'0 0.0
2019-Feb-08 12:28N 25°08' E 121°45'0 0.0
2019-Feb-08 11:58N 25°08' E 121°45'0 0.0
2019-Feb-08 11:28N 25°08' E 121°45'0 0.0
2019-Feb-08 10:55N 25°08' E 121°45'0 0.0
2019-Feb-08 10:25N 25°08' E 121°45'0 0.0
2019-Feb-08 09:55N 25°08' E 121°45'0 0.0
2019-Feb-08 09:25N 25°08' E 121°45'0 0.0
2019-Feb-08 08:55N 25°08' E 121°45'0 0.0
2019-Feb-08 08:25N 25°08' E 121°45'0 0.0
2019-Feb-08 07:55N 25°08' E 121°45'0 0.0
2019-Feb-08 07:25N 25°08' E 121°45'0 0.0
2019-Feb-08 06:55N 25°08' E 121°45'0 0.0
2019-Feb-08 06:19N 25°08' E 121°45'0 0.0
2019-Feb-08 05:55N 25°08' E 121°45'0 0.0
2019-Feb-08 05:25N 25°08' E 121°45'0 0.0
2019-Feb-08 04:55N 25°08' E 121°45'0 0.0
2019-Feb-08 04:25N 25°08' E 121°45'0 0.0
2019-Feb-08 03:55N 25°08' E 121°45'0 0.0
2019-Feb-08 03:28N 25°08' E 121°45'0 0.0
2019-Feb-08 02:58N 25°08' E 121°45'0 0.0
2019-Feb-08 02:28N 25°08' E 121°45'0 0.0
2019-Feb-08 01:58N 25°08' E 121°45'0 0.0
2019-Feb-08 01:28N 25°08' E 121°45'0 0.0
2019-Feb-08 00:55N 25°08' E 121°45'0 0.0
2019-Feb-08 00:25N 25°08' E 121°45'0 0.0
2019-Feb-07 23:55N 25°08' E 121°45'0 0.3
2019-Feb-07 23:25N 25°08' E 121°45'2 3.7
2019-Feb-07 22:56N 25°10' E 121°45'1 1.8
2019-Feb-07 22:30N 25°11' E 121°45'712.8
2019-Feb-07 21:57N 25°18' E 121°42'817.0
2019-Feb-07 21:30N 25°24' E 121°37'814.8
2019-Feb-07 20:56N 25°24' E 121°28'817.5
2019-Feb-07 20:29N 25°22' E 121°20'1817.6
2019-Feb-07 19:29N 25°17' E 121°01'817.0
2019-Feb-07 19:00N 25°12' E 120°54'1616.2 020 / 33
2019-Feb-07 18:00N 25°00' E 120°42'2424.3
2019-Feb-07 17:00N 24°42' E 120°24'3417.1 030 / 35
2019-Feb-07 15:00N 24°12' E 120°06'1313.2 030 / 311017.3 5.4 20.216.826.0
2019-Feb-07 14:00N 24°00' E 120°00'1616.3 030 / 101016.6 5.4 23.720.226.0
2019-Feb-07 13:00N 23°48' E 119°48'2524.6 320 / 61016.3 5.4 23.720.226.0
2019-Feb-07 12:00N 23°24' E 119°54'1721.6 290 / 161015.8 5.4 23.720.226.0
2019-Feb-07 11:12N 23°07' E 119°54'519.3
2019-Feb-07 10:56N 23°02' E 119°55'818.8
2019-Feb-07 10:30N 22°55' E 119°59'918.3
2019-Feb-07 10:00N 22°47' E 120°04'917.7
2019-Feb-07 09:31N 22°40' E 120°10'612.3
2019-Feb-07 09:00N 22°37' E 120°16'1 2.4
2019-Feb-07 08:30N 22°37' E 120°17'0 0.0
2019-Feb-07 08:00N 22°37' E 120°17'0 0.0
2019-Feb-07 07:30N 22°37' E 120°17'0 0.0
2019-Feb-07 07:00N 22°37' E 120°17'0 0.0
2019-Feb-07 06:30N 22°37' E 120°17'0 0.0
2019-Feb-07 06:00N 22°37' E 120°17'0 0.0
2019-Feb-07 05:30N 22°37' E 120°17'0 0.0
2019-Feb-07 05:00N 22°37' E 120°17'0 0.0
2019-Feb-07 04:30N 22°37' E 120°17'0 0.0
2019-Feb-07 03:57N 22°37' E 120°17'0 0.0
2019-Feb-07 03:27N 22°37' E 120°17'0 0.0
2019-Feb-07 02:57N 22°37' E 120°17'0 0.0
2019-Feb-07 02:26N 22°37' E 120°17'0 0.0
2019-Feb-07 02:00N 22°37' E 120°17'0 0.0
2019-Feb-07 01:30N 22°37' E 120°17'0 0.0
2019-Feb-07 00:57N 22°37' E 120°17'0 0.0
2019-Feb-07 00:27N 22°37' E 120°17'0 0.0
2019-Feb-07 00:00N 22°37' E 120°17'0 0.0
2019-Feb-06 23:26N 22°37' E 120°17'0 0.0
2019-Feb-06 22:57N 22°37' E 120°17'0 0.0
2019-Feb-06 22:27N 22°37' E 120°17'0 0.8
2019-Feb-06 22:00N 22°37' E 120°17'3 6.3
2019-Feb-06 21:30N 22°34' E 120°19'2 3.5
2019-Feb-06 21:00N 22°33' E 120°17'5 9.6
2019-Feb-06 20:30N 22°31' E 120°12'713.1
2019-Feb-06 20:01N 22°28' E 120°06'713.3
2019-Feb-06 19:29N 22°22' E 120°02'713.6
2019-Feb-06 19:00N 22°15' E 120°01'34176.1
2019-Feb-06 19:00N 22°12' E 120°00'1313.2 060 / 91014.6 5.4 23.720.226.0
2019-Feb-06 18:00N 22°00' E 119°54'1212.0 140 / 51014.910.8 24.820.126.0
2019-Feb-06 17:00N 21°48' E 119°54'37817.2 160 / 51015.110.8 24.820.126.0
2019-Feb-05 19:00N 15°30' E 119°36'0 0.0 360 / 141014.3
2019-Feb-05 18:00N 15°30' E 119°36'5117.0 360 / 141014.3
2019-Feb-05 15:00N 14°42' E 119°54'6 6.0 090 / 141015.310.8 26.519.625.2
2019-Feb-05 14:00N 14°36' E 119°54'   090 / 141015.310.8 26.519.625.2

Dump ship's entire track history